SWA3718 KPDX-KSMF
Flight info
| Callsign | SWA3718 |
|---|---|
| Flight time | 1h 11m |
| Altitude | 39000 |
| Route | HRMNS6 HYJOE LMT TUDOR2 |
| Aircraft | B38M/M-SADE2E3GIJ4RWZ/LB1D1 |
Departure
| Time | 2026-05-08 00:29 |
|---|---|
| Airport | Portland International Airport (KPDX) |
Arrival
| Time | 2026-05-08 01:41 |
|---|---|
| Airport | Sacramento International Airport (KSMF) |
| Time | Latitude | Longitude | Altitude | Speed | Heading |
|---|---|---|---|---|---|
| 2026-05-07 23:59 | 45.58888 | -122.58769 | 33 ft | 0 kts | 211° |
| 2026-05-08 00:19 | 45.58898 | -122.58760 | 33 ft | 4 kts | 210° |
| 2026-05-08 00:19 | 45.58922 | -122.58744 | 33 ft | 4 kts | 193° |
| 2026-05-08 00:19 | 45.58947 | -122.58744 | 33 ft | 4 kts | 153° |
| 2026-05-08 00:20 | 45.58960 | -122.58761 | 33 ft | 0 kts | 119° |
| 2026-05-08 00:24 | 45.58954 | -122.58731 | 33 ft | 9 kts | 98° |
| 2026-05-08 00:24 | 45.58960 | -122.58573 | 33 ft | 21 kts | 97° |
| 2026-05-08 00:25 | 45.58888 | -122.58364 | 33 ft | 25 kts | 120° |
| 2026-05-08 00:25 | 45.58803 | -122.58143 | 34 ft | 26 kts | 118° |
| 2026-05-08 00:25 | 45.58713 | -122.57911 | 34 ft | 27 kts | 119° |
| 2026-05-08 00:25 | 45.58618 | -122.57669 | 33 ft | 29 kts | 119° |
| 2026-05-08 00:26 | 45.58520 | -122.57418 | 33 ft | 30 kts | 119° |
| 2026-05-08 00:26 | 45.58415 | -122.57153 | 33 ft | 31 kts | 119° |
| 2026-05-08 00:26 | 45.58361 | -122.57013 | 33 ft | 1 kts | 119° |
| 2026-05-08 00:26 | 45.58355 | -122.56998 | 33 ft | 4 kts | 119° |
| 2026-05-08 00:27 | 45.58327 | -122.56926 | 33 ft | 14 kts | 119° |
| 2026-05-08 00:27 | 45.58277 | -122.56798 | 33 ft | 10 kts | 115° |
| 2026-05-08 00:27 | 45.58272 | -122.56763 | 33 ft | 0 kts | 91° |
| 2026-05-08 00:28 | 45.58273 | -122.56751 | 33 ft | 6 kts | 81° |
| 2026-05-08 00:28 | 45.58353 | -122.56708 | 33 ft | 22 kts | 333° |
| 2026-05-08 00:28 | 45.58477 | -122.56985 | 31 ft | 56 kts | 299° |
| 2026-05-08 00:29 | 45.58785 | -122.57774 | 35 ft | 123 kts | 299° |
| 2026-05-08 00:29 | 45.59102 | -122.58590 | 49 ft | 157 kts | 299° |
| 2026-05-08 00:29 | 45.59636 | -122.59974 | 665 ft | 154 kts | 299° |
| 2026-05-08 00:29 | 45.60111 | -122.61288 | 1497 ft | 149 kts | 296° |
| 2026-05-08 00:30 | 45.60598 | -122.62714 | 1873 ft | 171 kts | 295° |
| 2026-05-08 00:30 | 45.61115 | -122.64243 | 2548 ft | 171 kts | 296° |
| 2026-05-08 00:30 | 45.61523 | -122.65960 | 2883 ft | 195 kts | 283° |
| 2026-05-08 00:30 | 45.62013 | -122.67867 | 3217 ft | 216 kts | 298° |
| 2026-05-08 00:31 | 45.62808 | -122.69851 | 3513 ft | 244 kts | 300° |
| 2026-05-08 00:31 | 45.63659 | -122.71951 | 4314 ft | 248 kts | 299° |
| 2026-05-08 00:31 | 45.64552 | -122.74155 | 4900 ft | 264 kts | 299° |
| 2026-05-08 00:31 | 45.65477 | -122.76436 | 5739 ft | 265 kts | 299° |
| 2026-05-08 00:32 | 45.66405 | -122.78731 | 6556 ft | 270 kts | 297° |
| 2026-05-08 00:32 | 45.66979 | -122.81254 | 7364 ft | 268 kts | 273° |
| 2026-05-08 00:32 | 45.66754 | -122.83903 | 8140 ft | 272 kts | 255° |
| 2026-05-08 00:32 | 45.66237 | -122.86524 | 8940 ft | 275 kts | 255° |
| 2026-05-08 00:33 | 45.65562 | -122.89090 | 9742 ft | 279 kts | 239° |
| 2026-05-08 00:33 | 45.64207 | -122.91103 | 10395 ft | 291 kts | 216° |
| 2026-05-08 00:33 | 45.62258 | -122.92177 | 10756 ft | 314 kts | 190° |
| 2026-05-08 00:33 | 45.60039 | -122.91899 | 11279 ft | 331 kts | 165° |
| 2026-05-08 00:34 | 45.57818 | -122.90881 | 11899 ft | 338 kts | 166° |
| 2026-05-08 00:34 | 45.55555 | -122.89915 | 12664 ft | 341 kts | 166° |
| 2026-05-08 00:34 | 45.53336 | -122.88631 | 13390 ft | 350 kts | 152° |
| 2026-05-08 00:34 | 45.51244 | -122.86810 | 14112 ft | 355 kts | 152° |
| 2026-05-08 00:35 | 45.49117 | -122.84986 | 14812 ft | 358 kts | 152° |
| 2026-05-08 00:35 | 45.46970 | -122.83147 | 15551 ft | 362 kts | 152° |
| 2026-05-08 00:35 | 45.44800 | -122.81287 | 16261 ft | 366 kts | 152° |
| 2026-05-08 00:35 | 45.42613 | -122.79414 | 16963 ft | 369 kts | 152° |
| 2026-05-08 00:36 | 45.40400 | -122.77522 | 17662 ft | 373 kts | 152° |
| 2026-05-08 00:36 | 45.38166 | -122.75614 | 18355 ft | 376 kts | 152° |
| 2026-05-08 00:36 | 45.35911 | -122.73689 | 18930 ft | 379 kts | 152° |
| 2026-05-08 00:36 | 45.33640 | -122.71753 | 19511 ft | 383 kts | 152° |
| 2026-05-08 00:37 | 45.31347 | -122.69799 | 20079 ft | 386 kts | 152° |
| 2026-05-08 00:37 | 45.29036 | -122.67832 | 20643 ft | 389 kts | 152° |
| 2026-05-08 00:37 | 45.26701 | -122.65846 | 21197 ft | 392 kts | 152° |
| 2026-05-08 00:38 | 45.21981 | -122.61839 | 22291 ft | 399 kts | 152° |
| 2026-05-08 00:38 | 45.19584 | -122.59807 | 22824 ft | 402 kts | 152° |
| 2026-05-08 00:38 | 45.17172 | -122.57764 | 23342 ft | 406 kts | 152° |
| 2026-05-08 00:38 | 45.14772 | -122.55733 | 23824 ft | 409 kts | 152° |
| 2026-05-08 00:39 | 45.12322 | -122.53662 | 24267 ft | 411 kts | 152° |
| 2026-05-08 00:39 | 45.09857 | -122.51581 | 24704 ft | 414 kts | 152° |
| 2026-05-08 00:39 | 45.07377 | -122.49488 | 25130 ft | 417 kts | 152° |
| 2026-05-08 00:39 | 45.04876 | -122.47381 | 25546 ft | 419 kts | 152° |
| 2026-05-08 00:40 | 45.02361 | -122.45264 | 25965 ft | 422 kts | 152° |
| 2026-05-08 00:40 | 44.99831 | -122.43136 | 26374 ft | 425 kts | 152° |
| 2026-05-08 00:40 | 44.97285 | -122.40996 | 26774 ft | 427 kts | 152° |
| 2026-05-08 00:40 | 44.94683 | -122.38963 | 27166 ft | 427 kts | 161° |
| 2026-05-08 00:41 | 44.91877 | -122.37620 | 27517 ft | 427 kts | 165° |
| 2026-05-08 00:41 | 44.89041 | -122.36282 | 27871 ft | 430 kts | 165° |
| 2026-05-08 00:41 | 44.86193 | -122.34944 | 28249 ft | 433 kts | 165° |
| 2026-05-08 00:41 | 44.83328 | -122.33606 | 28614 ft | 435 kts | 165° |
| 2026-05-08 00:42 | 44.80443 | -122.32261 | 28999 ft | 438 kts | 165° |
| 2026-05-08 00:42 | 44.77544 | -122.30911 | 29352 ft | 441 kts | 165° |
| 2026-05-08 00:42 | 44.74625 | -122.29555 | 29703 ft | 443 kts | 165° |
| 2026-05-08 00:42 | 44.71691 | -122.28193 | 30042 ft | 445 kts | 165° |
| 2026-05-08 00:43 | 44.68741 | -122.26823 | 30332 ft | 448 kts | 165° |
| 2026-05-08 00:43 | 44.65774 | -122.25449 | 30605 ft | 450 kts | 165° |
| 2026-05-08 00:43 | 44.62794 | -122.24070 | 30886 ft | 452 kts | 165° |
| 2026-05-08 00:43 | 44.59801 | -122.22687 | 31154 ft | 455 kts | 165° |
| 2026-05-08 00:44 | 44.56781 | -122.21292 | 31446 ft | 457 kts | 165° |
| 2026-05-08 00:44 | 44.53754 | -122.19895 | 31731 ft | 460 kts | 165° |
| 2026-05-08 00:44 | 44.50712 | -122.18493 | 32008 ft | 462 kts | 165° |
| 2026-05-08 00:44 | 44.47690 | -122.17102 | 32291 ft | 464 kts | 165° |
| 2026-05-08 00:45 | 44.44571 | -122.15668 | 32536 ft | 467 kts | 165° |
| 2026-05-08 00:45 | 44.41524 | -122.14268 | 32809 ft | 469 kts | 165° |
| 2026-05-08 00:45 | 44.38422 | -122.12845 | 33096 ft | 470 kts | 165° |
| 2026-05-08 00:45 | 44.35298 | -122.11413 | 33352 ft | 473 kts | 165° |
| 2026-05-08 00:46 | 44.32174 | -122.09984 | 33663 ft | 473 kts | 165° |
| 2026-05-08 00:46 | 44.29040 | -122.08550 | 34045 ft | 473 kts | 165° |
| 2026-05-08 00:46 | 44.25919 | -122.07125 | 34356 ft | 472 kts | 165° |
| 2026-05-08 00:46 | 44.22793 | -122.05697 | 34647 ft | 471 kts | 166° |
| 2026-05-08 00:47 | 44.19680 | -122.04279 | 34949 ft | 471 kts | 165° |
| 2026-05-08 00:47 | 44.16570 | -122.02864 | 35270 ft | 469 kts | 166° |
| 2026-05-08 00:47 | 44.13466 | -122.01453 | 35555 ft | 469 kts | 166° |
| 2026-05-08 00:47 | 44.10367 | -122.00045 | 35839 ft | 469 kts | 166° |
| 2026-05-08 00:48 | 44.07272 | -121.98641 | 36133 ft | 468 kts | 166° |
| 2026-05-08 00:48 | 44.04179 | -121.97238 | 36400 ft | 467 kts | 166° |
| 2026-05-08 00:48 | 44.01090 | -121.95840 | 36673 ft | 467 kts | 166° |
| 2026-05-08 00:48 | 43.98005 | -121.94445 | 36925 ft | 466 kts | 166° |
| 2026-05-08 00:49 | 43.94925 | -121.93053 | 37171 ft | 466 kts | 166° |
| 2026-05-08 00:49 | 43.91849 | -121.91664 | 37416 ft | 465 kts | 166° |
| 2026-05-08 00:49 | 43.88773 | -121.90277 | 37642 ft | 464 kts | 166° |
| 2026-05-08 00:49 | 43.85683 | -121.89026 | 37865 ft | 459 kts | 175° |
| 2026-05-08 00:50 | 43.82540 | -121.88639 | 38130 ft | 453 kts | 180° |
| 2026-05-08 00:50 | 43.79394 | -121.88289 | 38264 ft | 454 kts | 179° |
| 2026-05-08 00:50 | 43.76247 | -121.87952 | 38458 ft | 454 kts | 180° |
| 2026-05-08 00:50 | 43.73095 | -121.87635 | 38640 ft | 453 kts | 180° |
| 2026-05-08 00:51 | 43.69958 | -121.87328 | 38807 ft | 453 kts | 180° |
| 2026-05-08 00:51 | 43.66814 | -121.87024 | 38944 ft | 452 kts | 180° |
| 2026-05-08 00:51 | 43.63715 | -121.86724 | 39037 ft | 452 kts | 180° |
| 2026-05-08 00:52 | 43.57438 | -121.86119 | 39049 ft | 451 kts | 180° |
| 2026-05-08 00:52 | 43.51176 | -121.85517 | 39049 ft | 451 kts | 180° |
| 2026-05-08 00:53 | 43.44911 | -121.84916 | 39045 ft | 451 kts | 180° |
| 2026-05-08 00:53 | 43.38649 | -121.84317 | 39046 ft | 451 kts | 180° |
| 2026-05-08 00:54 | 43.32399 | -121.83719 | 39043 ft | 450 kts | 179° |
| 2026-05-08 00:54 | 43.26148 | -121.83123 | 39043 ft | 450 kts | 179° |
| 2026-05-08 00:55 | 43.19906 | -121.82529 | 39044 ft | 450 kts | 179° |
| 2026-05-08 00:55 | 43.13657 | -121.81936 | 39047 ft | 450 kts | 179° |
| 2026-05-08 00:56 | 43.07413 | -121.81344 | 39045 ft | 450 kts | 179° |
| 2026-05-08 00:56 | 43.01176 | -121.80754 | 39043 ft | 449 kts | 179° |
| 2026-05-08 00:57 | 42.94940 | -121.80165 | 39039 ft | 449 kts | 179° |
| 2026-05-08 00:57 | 42.88708 | -121.79578 | 39038 ft | 449 kts | 179° |
| 2026-05-08 00:58 | 42.82481 | -121.78993 | 39038 ft | 448 kts | 179° |
| 2026-05-08 00:58 | 42.76253 | -121.78408 | 39039 ft | 448 kts | 179° |
| 2026-05-08 00:59 | 42.70031 | -121.77826 | 39036 ft | 448 kts | 179° |
| 2026-05-08 00:59 | 42.63812 | -121.77244 | 39039 ft | 448 kts | 179° |
| 2026-05-08 01:00 | 42.57594 | -121.76665 | 39039 ft | 448 kts | 179° |
| 2026-05-08 01:00 | 42.51379 | -121.76087 | 39039 ft | 447 kts | 179° |
| 2026-05-08 01:01 | 42.45163 | -121.75510 | 39053 ft | 447 kts | 179° |
| 2026-05-08 01:01 | 42.38956 | -121.74934 | 39072 ft | 447 kts | 179° |
| 2026-05-08 01:02 | 42.32748 | -121.74359 | 39083 ft | 447 kts | 179° |
| 2026-05-08 01:02 | 42.26550 | -121.73787 | 39109 ft | 447 kts | 178° |
| 2026-05-08 01:03 | 42.20342 | -121.73215 | 39106 ft | 447 kts | 178° |
| 2026-05-08 01:03 | 42.14143 | -121.72827 | 39110 ft | 445 kts | 183° |
| 2026-05-08 01:04 | 42.07991 | -121.72854 | 39111 ft | 445 kts | 182° |
| 2026-05-08 01:04 | 42.01801 | -121.72826 | 39096 ft | 445 kts | 182° |
| 2026-05-08 01:05 | 41.95609 | -121.72791 | 39076 ft | 445 kts | 182° |
| 2026-05-08 01:05 | 41.89426 | -121.72756 | 39059 ft | 445 kts | 182° |
| 2026-05-08 01:06 | 41.83236 | -121.72721 | 39053 ft | 444 kts | 182° |
| 2026-05-08 01:06 | 41.77057 | -121.72686 | 39040 ft | 444 kts | 182° |
| 2026-05-08 01:07 | 41.70883 | -121.72651 | 39046 ft | 444 kts | 182° |
| 2026-05-08 01:07 | 41.64709 | -121.72616 | 39049 ft | 443 kts | 182° |
| 2026-05-08 01:08 | 41.58546 | -121.72581 | 39055 ft | 443 kts | 182° |
| 2026-05-08 01:08 | 41.52381 | -121.72546 | 39059 ft | 443 kts | 182° |
| 2026-05-08 01:09 | 41.46223 | -121.72512 | 39066 ft | 443 kts | 181° |
| 2026-05-08 01:09 | 41.40064 | -121.72478 | 39070 ft | 443 kts | 181° |
| 2026-05-08 01:10 | 41.33902 | -121.72443 | 39067 ft | 442 kts | 182° |
| 2026-05-08 01:10 | 41.27789 | -121.72409 | 39064 ft | 442 kts | 182° |
| 2026-05-08 01:11 | 41.21643 | -121.72375 | 39066 ft | 442 kts | 182° |
| 2026-05-08 01:11 | 41.18590 | -121.72357 | 38916 ft | 434 kts | 182° |
| 2026-05-08 01:11 | 41.15588 | -121.72341 | 38367 ft | 431 kts | 182° |
| 2026-05-08 01:11 | 41.12581 | -121.72324 | 37726 ft | 431 kts | 182° |
| 2026-05-08 01:12 | 41.09598 | -121.72308 | 37204 ft | 427 kts | 181° |
| 2026-05-08 01:12 | 41.06635 | -121.72291 | 36732 ft | 423 kts | 181° |
| 2026-05-08 01:12 | 41.03706 | -121.72275 | 36262 ft | 420 kts | 181° |
| 2026-05-08 01:12 | 41.00789 | -121.72259 | 35770 ft | 418 kts | 181° |
| 2026-05-08 01:13 | 40.97894 | -121.72243 | 35280 ft | 416 kts | 181° |
| 2026-05-08 01:13 | 40.95007 | -121.72228 | 34795 ft | 414 kts | 181° |
| 2026-05-08 01:13 | 40.92133 | -121.72211 | 34312 ft | 412 kts | 181° |
| 2026-05-08 01:13 | 40.89268 | -121.72196 | 33805 ft | 411 kts | 181° |
| 2026-05-08 01:14 | 40.86414 | -121.72180 | 33272 ft | 409 kts | 181° |
| 2026-05-08 01:14 | 40.83576 | -121.72164 | 32809 ft | 406 kts | 181° |
| 2026-05-08 01:14 | 40.80760 | -121.72149 | 32355 ft | 404 kts | 181° |
| 2026-05-08 01:14 | 40.77960 | -121.72133 | 31904 ft | 401 kts | 181° |
| 2026-05-08 01:15 | 40.75179 | -121.72118 | 31460 ft | 399 kts | 181° |
| 2026-05-08 01:15 | 40.72410 | -121.72103 | 31022 ft | 396 kts | 181° |
| 2026-05-08 01:15 | 40.69663 | -121.72088 | 30593 ft | 395 kts | 181° |
| 2026-05-08 01:15 | 40.66921 | -121.72073 | 30144 ft | 393 kts | 181° |
| 2026-05-08 01:16 | 40.64190 | -121.72058 | 29663 ft | 391 kts | 181° |
| 2026-05-08 01:16 | 40.61477 | -121.72044 | 29218 ft | 389 kts | 181° |
| 2026-05-08 01:16 | 40.58787 | -121.72029 | 28806 ft | 385 kts | 181° |
| 2026-05-08 01:16 | 40.56112 | -121.72014 | 28398 ft | 382 kts | 181° |
| 2026-05-08 01:17 | 40.53465 | -121.72000 | 27991 ft | 379 kts | 181° |
| 2026-05-08 01:17 | 40.50834 | -121.71986 | 27589 ft | 377 kts | 181° |
| 2026-05-08 01:17 | 40.49101 | -121.71976 | 27326 ft | 375 kts | 181° |
| 2026-05-08 01:17 | 40.45624 | -121.71958 | 26802 ft | 372 kts | 181° |
| 2026-05-08 01:18 | 40.43911 | -121.71903 | 26529 ft | 372 kts | 178° |
| 2026-05-08 01:18 | 40.41331 | -121.71686 | 26126 ft | 370 kts | 178° |
| 2026-05-08 01:18 | 40.38770 | -121.71487 | 25756 ft | 368 kts | 179° |
| 2026-05-08 01:18 | 40.35388 | -121.71222 | 25224 ft | 367 kts | 178° |
| 2026-05-08 01:19 | 40.33665 | -121.71069 | 24922 ft | 368 kts | 178° |
| 2026-05-08 01:19 | 40.31119 | -121.70847 | 24560 ft | 366 kts | 178° |
| 2026-05-08 01:19 | 40.28588 | -121.70628 | 24192 ft | 364 kts | 178° |
| 2026-05-08 01:19 | 40.26062 | -121.70410 | 23815 ft | 364 kts | 178° |
| 2026-05-08 01:20 | 40.23538 | -121.70193 | 23397 ft | 363 kts | 178° |
| 2026-05-08 01:20 | 40.21025 | -121.69977 | 22968 ft | 361 kts | 178° |
| 2026-05-08 01:20 | 40.18524 | -121.69762 | 22584 ft | 359 kts | 178° |
| 2026-05-08 01:20 | 40.16045 | -121.69549 | 22208 ft | 356 kts | 178° |
| 2026-05-08 01:21 | 40.13582 | -121.69338 | 21840 ft | 354 kts | 178° |
| 2026-05-08 01:21 | 40.11167 | -121.69131 | 21480 ft | 351 kts | 178° |
| 2026-05-08 01:21 | 40.08708 | -121.68919 | 21109 ft | 348 kts | 178° |
| 2026-05-08 01:21 | 40.06328 | -121.68716 | 20744 ft | 346 kts | 178° |
| 2026-05-08 01:22 | 40.03931 | -121.68512 | 20380 ft | 345 kts | 178° |
| 2026-05-08 01:22 | 40.01544 | -121.68308 | 20018 ft | 342 kts | 178° |
| 2026-05-08 01:22 | 39.99172 | -121.68105 | 19657 ft | 341 kts | 179° |
| 2026-05-08 01:22 | 39.96831 | -121.67906 | 19306 ft | 340 kts | 178° |
| 2026-05-08 01:23 | 39.94470 | -121.67705 | 18901 ft | 340 kts | 179° |
| 2026-05-08 01:23 | 39.92114 | -121.67503 | 18559 ft | 338 kts | 179° |
| 2026-05-08 01:23 | 39.90695 | -121.67382 | 18346 ft | 338 kts | 179° |
| 2026-05-08 01:23 | 39.88352 | -121.67182 | 17950 ft | 337 kts | 179° |
| 2026-05-08 01:24 | 39.86019 | -121.66983 | 17574 ft | 335 kts | 179° |
| 2026-05-08 01:24 | 39.83696 | -121.66785 | 17211 ft | 333 kts | 179° |
| 2026-05-08 01:24 | 39.81387 | -121.66589 | 16854 ft | 332 kts | 179° |
| 2026-05-08 01:24 | 39.79095 | -121.66394 | 16510 ft | 329 kts | 179° |
| 2026-05-08 01:25 | 39.76812 | -121.66200 | 16156 ft | 328 kts | 179° |
| 2026-05-08 01:25 | 39.74578 | -121.66010 | 15818 ft | 326 kts | 179° |
| 2026-05-08 01:25 | 39.72320 | -121.65819 | 15477 ft | 324 kts | 179° |
| 2026-05-08 01:25 | 39.70073 | -121.65628 | 15138 ft | 323 kts | 179° |
| 2026-05-08 01:26 | 39.67834 | -121.65437 | 14790 ft | 322 kts | 179° |
| 2026-05-08 01:26 | 39.65607 | -121.65249 | 14462 ft | 320 kts | 179° |
| 2026-05-08 01:26 | 39.63393 | -121.65062 | 14121 ft | 317 kts | 179° |
| 2026-05-08 01:26 | 39.61204 | -121.64877 | 13771 ft | 314 kts | 179° |
| 2026-05-08 01:27 | 39.59039 | -121.64694 | 13402 ft | 311 kts | 179° |
| 2026-05-08 01:27 | 39.56896 | -121.64513 | 13056 ft | 307 kts | 179° |
| 2026-05-08 01:27 | 39.54783 | -121.64334 | 12725 ft | 302 kts | 179° |
| 2026-05-08 01:27 | 39.52693 | -121.64157 | 12407 ft | 300 kts | 179° |
| 2026-05-08 01:28 | 39.50672 | -121.63987 | 12090 ft | 298 kts | 179° |
| 2026-05-08 01:28 | 39.48605 | -121.63813 | 11742 ft | 298 kts | 179° |
| 2026-05-08 01:28 | 39.46543 | -121.63639 | 11435 ft | 296 kts | 178° |
| 2026-05-08 01:28 | 39.44495 | -121.63467 | 11130 ft | 294 kts | 178° |
| 2026-05-08 01:29 | 39.42455 | -121.63295 | 10820 ft | 293 kts | 178° |
| 2026-05-08 01:29 | 39.40422 | -121.63124 | 10503 ft | 292 kts | 178° |
| 2026-05-08 01:29 | 39.38399 | -121.62954 | 10214 ft | 290 kts | 178° |
| 2026-05-08 01:29 | 39.36435 | -121.62790 | 10040 ft | 284 kts | 178° |
| 2026-05-08 01:30 | 39.34463 | -121.62624 | 9702 ft | 284 kts | 178° |
| 2026-05-08 01:30 | 39.32497 | -121.62459 | 9379 ft | 283 kts | 178° |
| 2026-05-08 01:30 | 39.30539 | -121.62295 | 9062 ft | 281 kts | 178° |
| 2026-05-08 01:30 | 39.28591 | -121.62132 | 8752 ft | 280 kts | 178° |
| 2026-05-08 01:31 | 39.26652 | -121.61969 | 8437 ft | 279 kts | 178° |
| 2026-05-08 01:31 | 39.24721 | -121.61808 | 8138 ft | 278 kts | 178° |
| 2026-05-08 01:31 | 39.22793 | -121.61648 | 7801 ft | 278 kts | 178° |
| 2026-05-08 01:31 | 39.20865 | -121.61488 | 7486 ft | 277 kts | 178° |
| 2026-05-08 01:32 | 39.18949 | -121.61328 | 7195 ft | 275 kts | 178° |
| 2026-05-08 01:32 | 39.17039 | -121.61169 | 6893 ft | 275 kts | 178° |
| 2026-05-08 01:32 | 39.15150 | -121.61013 | 6588 ft | 273 kts | 177° |
| 2026-05-08 01:32 | 39.13243 | -121.60855 | 6291 ft | 273 kts | 177° |
| 2026-05-08 01:33 | 39.11350 | -121.60698 | 5970 ft | 272 kts | 178° |
| 2026-05-08 01:33 | 39.09460 | -121.60540 | 5665 ft | 272 kts | 177° |
| 2026-05-08 01:33 | 39.07572 | -121.60384 | 5356 ft | 271 kts | 177° |
| 2026-05-08 01:33 | 39.05695 | -121.60228 | 5058 ft | 270 kts | 177° |
| 2026-05-08 01:34 | 39.03823 | -121.60073 | 4763 ft | 269 kts | 177° |
| 2026-05-08 01:34 | 39.01957 | -121.59919 | 4447 ft | 267 kts | 177° |
| 2026-05-08 01:34 | 39.00110 | -121.59766 | 4155 ft | 264 kts | 177° |
| 2026-05-08 01:34 | 38.98312 | -121.59596 | 3993 ft | 254 kts | 175° |
| 2026-05-08 01:35 | 38.96590 | -121.59380 | 3842 ft | 243 kts | 175° |
| 2026-05-08 01:35 | 38.94911 | -121.59170 | 3722 ft | 247 kts | 175° |
| 2026-05-08 01:35 | 38.93173 | -121.58958 | 3567 ft | 254 kts | 175° |
| 2026-05-08 01:35 | 38.91394 | -121.58738 | 3421 ft | 257 kts | 175° |
| 2026-05-08 01:36 | 38.89611 | -121.58520 | 3267 ft | 257 kts | 175° |
| 2026-05-08 01:36 | 38.87838 | -121.58306 | 3082 ft | 256 kts | 175° |
| 2026-05-08 01:36 | 38.86056 | -121.58089 | 2816 ft | 255 kts | 175° |
| 2026-05-08 01:36 | 38.84356 | -121.57883 | 2669 ft | 234 kts | 175° |
| 2026-05-08 01:37 | 38.82800 | -121.57792 | 2411 ft | 216 kts | 181° |
| 2026-05-08 01:37 | 38.81352 | -121.57806 | 2070 ft | 200 kts | 181° |
| 2026-05-08 01:37 | 38.80052 | -121.57831 | 1905 ft | 174 kts | 182° |
| 2026-05-08 01:37 | 38.78919 | -121.57863 | 1657 ft | 158 kts | 181° |
| 2026-05-08 01:38 | 38.77851 | -121.57875 | 1420 ft | 151 kts | 180° |
| 2026-05-08 01:38 | 38.76821 | -121.57892 | 1244 ft | 150 kts | 181° |
| 2026-05-08 01:38 | 38.75777 | -121.57913 | 1029 ft | 148 kts | 180° |
| 2026-05-08 01:38 | 38.74756 | -121.57931 | 815 ft | 146 kts | 181° |
| 2026-05-08 01:39 | 38.74444 | -121.57936 | 759 ft | 146 kts | 181° |
| 2026-05-08 01:40 | 38.73752 | -121.57950 | 648 ft | 145 kts | 182° |
| 2026-05-08 01:40 | 38.72749 | -121.57967 | 459 ft | 143 kts | 181° |
| 2026-05-08 01:40 | 38.71762 | -121.57992 | 302 ft | 142 kts | 182° |
| 2026-05-08 01:40 | 38.70774 | -121.58005 | 85 ft | 142 kts | 181° |
| 2026-05-08 01:41 | 38.69883 | -121.58026 | 36 ft | 103 kts | 179° |
| 2026-05-08 01:41 | 38.69396 | -121.58031 | 35 ft | 47 kts | 181° |
| 2026-05-08 01:41 | 38.69142 | -121.58133 | 36 ft | 39 kts | 211° |
| 2026-05-08 01:41 | 38.69034 | -121.58217 | 37 ft | 0 kts | 230° |
| 2026-05-08 01:42 | 38.69026 | -121.58232 | 35 ft | 6 kts | 245° |
| 2026-05-08 01:43 | 38.69082 | -121.58297 | 37 ft | 19 kts | 351° |
| 2026-05-08 01:43 | 38.69266 | -121.58295 | 33 ft | 33 kts | 0° |
| 2026-05-08 01:43 | 38.69511 | -121.58291 | 32 ft | 29 kts | 1° |
| 2026-05-08 01:43 | 38.69613 | -121.58359 | 33 ft | 13 kts | 276° |
| 2026-05-08 01:44 | 38.69616 | -121.58486 | 33 ft | 16 kts | 270° |
| 2026-05-08 01:44 | 38.69618 | -121.58653 | 34 ft | 21 kts | 271° |
| 2026-05-08 01:44 | 38.69621 | -121.58853 | 36 ft | 24 kts | 278° |
| 2026-05-08 01:44 | 38.69695 | -121.59028 | 36 ft | 15 kts | 275° |
| 2026-05-08 01:45 | 38.69697 | -121.59159 | 36 ft | 16 kts | 270° |
| 2026-05-08 01:45 | 38.69697 | -121.59292 | 36 ft | 5 kts | 270° |
| 2026-05-08 01:45 | 38.69690 | -121.59341 | 36 ft | 6 kts | 231° |
| 2026-05-08 01:45 | 38.69655 | -121.59361 | 36 ft | 5 kts | 182° |
| 2026-05-08 01:46 | 38.69626 | -121.59360 | 36 ft | 3 kts | 180° |